Miao-li, Taiwan
Current Conditions -  °F | °C
As of 8:00 AM on Sunday 21 Dec 2014 (Local Time) from RCMQ Reporting Station
Broken Clouds Broken Clouds  
Wind Chill: 57°   Ceiling: 4000
Heat Index: 57°   Visibility: 6mi
Dew Point: 50°   Wind: 9mph
Humidity: 77%   Direction: 360°N
Pressure: 30.12"   Gusts: NA
Location:  24.57°N, 120.82°E
Report Text: RCMQ 210000Z 36008KT 9999 FEW010 SCT025 BKN040 14/10 Q1020 RMK A3014
Loading
Personal Weather Stations






























Interactive Weather Map New forecast layout! Learn more

10-Day Weather Forecast

Advertisements
Track Severe Weather on mobile